Time;durP1;ratioP1;P1;durP2;ratioP2;P2;SDS_P1;SDS_P2;PMS_P1;PMS_P2;Temp;Humidity;BMP_temperature;BMP_pressure;BME280_temperature;BME280_humidity;BME280_pressure;Samples;Min_cycle;Max_cycle;Signal;HPM_P1;HPM_P2
2021/12/15 00:14:47;;;;;;;82.43;39.83;;;;;;;2.19;100.00;101457.81;21062420;27;20569;-70
2021/12/15 00:34:51;;;;;;;61.80;31.23;;;;;;;2.29;100.00;101446.31;21145921;27;20568;-64
2021/12/15 00:54:50;;;;;;;98.20;37.40;;;;;;;2.30;100.00;101477.00;21003545;27;20627;-63
2021/12/15 01:25:25;;;;;;;107.07;31.00;;;;;;;2.31;100.00;101494.53;21057228;28;20872;-62
2021/12/15 01:35:28;;;;;;;75.20;28.67;;;;;;;2.33;100.00;101499.78;21021977;28;20294;-65
2021/12/15 01:55:53;;;;;;;158.80;36.23;;;;;;;2.14;100.00;101499.13;21054108;28;20302;-72
2021/12/15 02:05:58;;;;;;;173.73;36.47;;;;;;;2.11;100.00;101504.44;21052343;28;20232;-73
2021/12/15 02:46:15;;;;;;;141.33;30.93;;;;;;;2.06;100.00;101514.13;21055795;27;20259;-73
2021/12/15 02:56:19;;;;;;;150.23;32.67;;;;;;;2.15;100.00;101507.03;21056675;27;20270;-67
2021/12/15 03:06:30;;;;;;;129.47;32.37;;;;;;;2.18;100.00;101506.97;21055344;27;20642;-61
2021/12/15 03:26:38;;;;;;;211.40;38.67;;;;;;;2.08;100.00;101525.50;21004460;27;20589;-65
2021/12/15 03:37:06;;;;;;;226.40;38.10;;;;;;;2.11;100.00;101541.28;21057003;27;20729;-59
2021/12/15 03:47:17;;;;;;;191.93;35.80;;;;;;;2.07;100.00;101540.44;20971160;28;20732;-58
2021/12/15 03:57:21;;;;;;;153.03;34.30;;;;;;;2.11;100.00;101572.88;20971725;28;20231;-59
2021/12/15 04:27:16;;;;;;;123.53;30.23;;;;;;;2.02;100.00;101563.31;20986845;27;20566;-63
2021/12/15 04:37:19;;;;;;;100.30;25.57;;;;;;;2.09;100.00;101579.94;20975979;28;20347;-72
2021/12/15 04:47:24;;;;;;;67.53;24.50;;;;;;;2.17;100.00;101583.38;21089324;27;20227;-72
2021/12/15 05:07:31;;;;;;;100.93;23.87;;;;;;;2.28;100.00;101609.59;21053518;27;20646;-69
2021/12/15 05:17:34;;;;;;;104.20;27.33;;;;;;;2.13;100.00;101598.31;21056021;27;20253;-72
2021/12/15 05:27:39;;;;;;;119.87;28.23;;;;;;;2.04;100.00;101594.91;21055389;27;20242;-70
2021/12/15 05:47:40;;;;;;;186.27;31.73;;;;;;;2.10;100.00;101624.66;21064830;27;20630;-59
2021/12/15 05:57:44;;;;;;;80.90;25.73;;;;;;;2.13;100.00;101635.19;21089054;27;20216;-62
2021/12/15 06:07:48;;;;;;;55.37;21.77;;;;;;;2.29;100.00;101630.66;21022329;27;20209;-60
2021/12/15 06:17:55;;;;;;;66.67;21.00;;;;;;;2.37;100.00;101639.34;20991520;27;20316;-60
2021/12/15 06:27:58;;;;;;;72.37;20.83;;;;;;;2.33;100.00;101658.69;20990740;28;20248;-66
2021/12/15 06:38:02;;;;;;;76.13;18.63;;;;;;;2.38;100.00;101664.81;21046041;27;20566;-66
2021/12/15 06:58:29;;;;;;;95.17;21.80;;;;;;;2.28;100.00;101681.59;20995926;28;20228;-76
2021/12/15 07:08:35;;;;;;;52.03;17.30;;;;;;;2.48;100.00;101684.03;20992590;28;20232;-74
2021/12/15 07:18:48;;;;;;;107.67;23.87;;;;;;;2.76;100.00;101695.19;20994780;28;20233;-77
2021/12/15 07:28:52;;;;;;;104.83;24.60;;;;;;;2.93;100.00;101692.34;20993185;28;20325;-77
2021/12/15 07:38:58;;;;;;;57.20;20.57;;;;;;;3.05;100.00;101690.47;20994255;28;20730;-60
2021/12/15 07:49:02;;;;;;;60.03;22.30;;;;;;;3.14;100.00;101703.53;20991175;28;20222;-67
2021/12/15 07:59:05;;;;;;;150.07;29.03;;;;;;;3.07;100.00;101730.88;20991827;28;20318;-75
2021/12/15 08:09:09;;;;;;;68.77;24.67;;;;;;;3.18;100.00;101723.72;20985736;28;20322;-76
2021/12/15 08:19:15;;;;;;;60.40;23.70;;;;;;;3.45;100.00;101737.47;20989109;28;20310;-71
2021/12/15 08:29:18;;;;;;;74.57;27.10;;;;;;;3.50;100.00;101740.94;20989943;28;20235;-73
2021/12/15 08:39:22;;;;;;;55.43;22.07;;;;;;;3.62;100.00;101746.06;20987606;28;20269;-68
2021/12/15 08:49:25;;;;;;;50.53;22.87;;;;;;;3.72;100.00;101749.47;20987376;28;20252;-70
2021/12/15 08:59:29;;;;;;;43.60;23.37;;;;;;;3.69;100.00;101744.22;21019883;28;20635;-73
2021/12/15 09:09:34;;;;;;;54.60;24.70;;;;;;;3.75;100.00;101717.72;20985978;28;20250;-72
2021/12/15 09:19:37;;;;;;;22.27;14.43;;;;;;;4.10;100.00;101699.63;20985101;28;20226;-67
2021/12/15 09:29:40;;;;;;;37.53;16.73;;;;;;;4.31;100.00;101704.53;20986636;28;20218;-66
2021/12/15 09:39:44;;;;;;;29.67;15.97;;;;;;;4.39;100.00;101707.03;20984399;28;20727;-72
2021/12/15 10:10:47;;;;;;;20.80;13.17;;;;;;;5.03;100.00;101674.16;20984721;28;20301;-68
2021/12/15 10:20:51;;;;;;;23.27;12.30;;;;;;;5.63;100.00;101671.13;20967558;28;20253;-72
2021/12/15 10:30:54;;;;;;;21.90;13.63;;;;;;;5.83;100.00;101663.56;20993682;28;20234;-65
2021/12/15 10:41:13;;;;;;;23.47;14.20;;;;;;;5.71;100.00;101674.47;20998698;28;20580;-68
2021/12/15 10:51:25;;;;;;;35.77;15.87;;;;;;;5.54;100.00;101671.31;20998005;28;20587;-70
2021/12/15 11:01:46;;;;;;;28.00;14.70;;;;;;;5.52;100.00;101641.38;20996252;28;20311;-68
2021/12/15 11:12:01;;;;;;;38.57;13.93;;;;;;;5.61;100.00;101649.09;20978796;28;20223;-68
2021/12/15 11:22:36;;;;;;;25.60;14.33;;;;;;;5.78;100.00;101644.28;21028254;28;20228;-74
2021/12/15 11:32:39;;;;;;;26.33;12.83;;;;;;;5.91;100.00;101645.78;20995188;28;20298;-73
2021/12/15 11:42:44;;;;;;;25.20;13.43;;;;;;;5.84;100.00;101641.47;20994215;28;20240;-69
2021/12/15 11:52:51;;;;;;;35.10;13.60;;;;;;;5.70;100.00;101628.56;20992294;28;20229;-73
2021/12/15 12:02:57;;;;;;;36.03;14.63;;;;;;;5.80;100.00;101631.84;20991560;28;20236;-73
2021/12/15 12:13:12;;;;;;;24.77;13.73;;;;;;;5.97;100.00;101635.03;20991237;28;20230;-69
2021/12/15 12:23:19;;;;;;;27.13;14.37;;;;;;;6.16;100.00;101629.28;20970707;28;20252;-72
2021/12/15 12:33:24;;;;;;;32.77;17.13;;;;;;;6.11;100.00;101638.22;20989648;28;20223;-74
2021/12/15 12:43:38;;;;;;;31.33;16.43;;;;;;;5.96;100.00;101638.56;20984188;28;21313;-74
2021/12/15 13:04:13;;;;;;;36.17;21.10;;;;;;;5.65;100.00;101659.59;21043483;28;20256;-74
2021/12/15 13:14:20;;;;;;;37.17;20.07;;;;;;;5.49;100.00;101662.59;21069504;28;20309;-59
2021/12/15 13:35:05;;;;;;;40.27;21.47;;;;;;;5.12;100.00;101673.97;21068515;28;20595;-69
2021/12/15 13:45:35;;;;;;;50.37;22.17;;;;;;;4.98;100.00;101673.34;21003351;28;20227;-71
2021/12/15 13:55:44;;;;;;;49.90;22.03;;;;;;;4.88;100.00;101685.03;20969160;28;20276;-59
2021/12/15 14:06:06;;;;;;;43.60;20.90;;;;;;;4.83;100.00;101687.75;20977434;28;20257;-59
2021/12/15 14:16:10;;;;;;;37.77;21.07;;;;;;;4.81;100.00;101683.41;20999001;28;20235;-71
2021/12/15 14:26:24;;;;;;;44.17;24.00;;;;;;;4.75;100.00;101665.88;20994181;28;20227;-64
2021/12/15 14:36:31;;;;;;;36.77;23.77;;;;;;;4.69;100.00;101656.28;20970753;28;20230;-58
2021/12/15 14:46:38;;;;;;;28.87;18.17;;;;;;;4.69;100.00;101653.66;20996393;28;20584;-58
2021/12/15 14:56:43;;;;;;;39.00;24.90;;;;;;;4.74;100.00;101642.97;20977081;28;20302;-58
2021/12/15 15:06:47;;;;;;;30.23;20.47;;;;;;;4.79;100.00;101638.47;20994334;28;20313;-57
2021/12/15 15:16:50;;;;;;;29.20;19.07;;;;;;;4.83;100.00;101618.13;20994076;28;20301;-58
2021/12/15 15:27:06;;;;;;;34.13;22.70;;;;;;;4.88;100.00;101619.78;20959536;28;20231;-58
2021/12/15 15:37:20;;;;;;;37.60;25.37;;;;;;;4.93;100.00;101630.28;20998909;28;20625;-59
2021/12/15 15:47:24;;;;;;;35.43;23.87;;;;;;;4.93;100.00;101630.28;20993035;28;20700;-59
2021/12/15 15:57:27;;;;;;;38.43;24.83;;;;;;;4.79;100.00;101646.41;20991881;28;20230;-59
2021/12/15 16:07:32;;;;;;;41.80;26.90;;;;;;;4.72;100.00;101653.56;20992173;28;20230;-58
2021/12/15 16:17:43;;;;;;;43.10;25.10;;;;;;;4.82;100.00;101645.47;20988210;28;20222;-72
2021/12/15 16:27:54;;;;;;;42.30;24.37;;;;;;;4.91;100.00;101625.00;20971588;28;20231;-71
2021/12/15 16:37:59;;;;;;;46.87;25.57;;;;;;;4.93;100.00;101656.72;20989183;28;20226;-71
2021/12/15 16:48:30;;;;;;;44.80;26.40;;;;;;;4.96;100.00;101656.63;20971985;28;20227;-66
2021/12/15 16:58:35;;;;;;;59.00;31.63;;;;;;;4.99;100.00;101667.16;20959769;28;20696;-60
2021/12/15 17:08:41;;;;;;;59.67;32.30;;;;;;;5.00;100.00;101655.69;20961023;28;20251;-61
2021/12/15 17:18:47;;;;;;;67.27;29.83;;;;;;;4.96;100.00;101646.06;20963243;28;20223;-67
2021/12/15 17:28:54;;;;;;;54.87;26.80;;;;;;;4.99;100.00;101654.81;20982293;28;20954;-73
2021/12/15 17:39:00;;;;;;;60.33;25.07;;;;;;;5.02;100.00;101656.53;20980317;28;20231;-70
2021/12/15 17:49:11;;;;;;;77.33;30.27;;;;;;;4.91;100.00;101647.94;20970014;28;20222;-66
2021/12/15 17:59:15;;;;;;;124.77;31.93;;;;;;;4.85;100.00;101648.03;20979234;28;20214;-60
2021/12/15 18:09:24;;;;;;;140.37;33.83;;;;;;;4.74;100.00;101645.63;20981200;28;20771;-67
2021/12/15 18:19:29;;;;;;;95.73;29.77;;;;;;;4.75;100.00;101628.84;20977560;28;20223;-67
2021/12/15 18:29:37;;;;;;;117.67;28.90;;;;;;;4.69;100.00;101627.22;20979556;28;20272;-63
2021/12/15 18:39:42;;;;;;;93.93;25.50;;;;;;;4.82;100.00;101614.63;20962406;28;20226;-64
2021/12/15 18:49:53;;;;;;;83.17;28.77;;;;;;;4.89;100.00;101612.72;20985888;28;20222;-61
2021/12/15 18:59:57;;;;;;;52.53;25.80;;;;;;;4.98;100.00;101628.38;20995163;28;20261;-58
2021/12/15 19:10:03;;;;;;;55.37;27.93;;;;;;;5.02;100.00;101632.72;20968405;28;20391;-61
2021/12/15 19:20:19;;;;;;;68.77;31.73;;;;;;;5.07;100.00;101633.50;21033752;27;20232;-62
2021/12/15 19:30:32;;;;;;;63.97;29.93;;;;;;;5.12;100.00;101636.91;20997299;28;20316;-58
2021/12/15 19:40:39;;;;;;;59.53;29.90;;;;;;;5.17;100.00;101640.34;20959767;27;20221;-61
2021/12/15 19:50:47;;;;;;;56.10;28.93;;;;;;;5.19;100.00;101638.56;20999303;27;20226;-59
2021/12/15 20:01:03;;;;;;;64.07;30.57;;;;;;;5.24;100.00;101641.94;20990574;28;20231;-59
2021/12/15 20:11:11;;;;;;;79.90;32.03;;;;;;;5.27;100.00;101625.16;20997045;28;20231;-58
2021/12/15 20:21:16;;;;;;;58.10;28.67;;;;;;;5.30;100.00;101620.66;20989387;28;20716;-59
2021/12/15 20:31:21;;;;;;;60.33;30.33;;;;;;;5.36;100.00;101627.59;20988964;28;20266;-63
2021/12/15 20:41:27;;;;;;;67.50;30.63;;;;;;;5.38;100.00;101613.41;20986232;28;20284;-63
2021/12/15 20:51:31;;;;;;;54.03;27.70;;;;;;;5.40;100.00;101611.59;20983477;28;20250;-64
2021/12/15 21:01:35;;;;;;;48.17;25.90;;;;;;;5.55;100.00;101614.81;20970418;27;20239;-64
2021/12/15 21:11:40;;;;;;;47.77;24.80;;;;;;;5.65;100.00;101611.06;20992415;27;20234;-62
2021/12/15 21:21:46;;;;;;;55.97;28.00;;;;;;;5.70;100.00;101617.09;20989533;27;20238;-62
2021/12/15 21:31:50;;;;;;;51.50;26.83;;;;;;;5.76;100.00;101619.63;20927319;28;20278;-58
2021/12/15 21:41:54;;;;;;;54.60;27.67;;;;;;;5.67;100.00;101609.25;20900810;28;20231;-57
2021/12/15 21:51:57;;;;;;;99.23;29.70;;;;;;;5.55;100.00;101609.53;20974169;28;20223;-57
2021/12/15 22:02:01;;;;;;;137.17;32.10;;;;;;;5.46;100.00;101604.41;20983199;28;20310;-58
2021/12/15 22:12:05;;;;;;;251.50;35.93;;;;;;;5.41;100.00;101597.47;20982304;28;20236;-57
2021/12/15 22:22:08;;;;;;;149.67;34.20;;;;;;;5.42;100.00;101598.34;21017734;28;20365;-64
2021/12/15 22:32:18;;;;;;;155.70;32.50;;;;;;;5.44;100.00;101581.50;20983215;28;20602;-65
2021/12/15 22:42:22;;;;;;;90.30;31.93;;;;;;;5.47;100.00;101580.56;20914893;28;20282;-64
2021/12/15 22:52:25;;;;;;;81.47;28.97;;;;;;;5.57;100.00;101581.22;20915022;28;20219;-64
2021/12/15 23:02:31;;;;;;;75.67;32.57;;;;;;;5.53;100.00;101583.09;20971668;28;20250;-64
2021/12/15 23:12:35;;;;;;;72.63;31.27;;;;;;;5.60;100.00;101586.44;20994461;28;20238;-64
2021/12/15 23:22:38;;;;;;;67.00;28.60;;;;;;;5.67;100.00;101566.88;20994804;28;20223;-65
2021/12/15 23:32:42;;;;;;;63.03;27.57;;;;;;;5.69;100.00;101573.84;20992794;28;20681;-63
2021/12/15 23:43:16;;;;;;;65.57;29.27;;;;;;;5.75;100.00;101570.19;20991865;28;20223;-65
